sensor_id;sensor_type;location;lat;lon;timestamp;pressure;altitude;pressure_sealevel;temperature;humidity
63347;BME280;49472;49.880;8.650;2023-03-04T00:00:52;100855.44;;;8.12;48.01
63347;BME280;49472;49.880;8.650;2023-03-04T00:03:17;100860.63;;;7.20;52.11
63347;BME280;49472;49.880;8.650;2023-03-04T00:05:43;100861.19;;;7.80;49.74
63347;BME280;49472;49.880;8.650;2023-03-04T00:08:09;100859.47;;;7.98;49.00
63347;BME280;49472;49.880;8.650;2023-03-04T00:10:34;100865.63;;;7.94;48.24
63347;BME280;49472;49.880;8.650;2023-03-04T00:12:59;100865.19;;;7.86;48.97
63347;BME280;49472;49.880;8.650;2023-03-04T00:15:25;100876.00;;;7.72;49.99
63347;BME280;49472;49.880;8.650;2023-03-04T00:17:50;100872.66;;;7.53;50.14
63347;BME280;49472;49.880;8.650;2023-03-04T00:20:15;100865.03;;;7.53;50.20
63347;BME280;49472;49.880;8.650;2023-03-04T00:22:41;100870.84;;;7.37;50.61
63347;BME280;49472;49.880;8.650;2023-03-04T00:25:06;100869.97;;;7.20;51.73
63347;BME280;49472;49.880;8.650;2023-03-04T00:27:31;100868.41;;;6.98;52.88
63347;BME280;49472;49.880;8.650;2023-03-04T00:29:57;100862.31;;;7.20;51.81
63347;BME280;49472;49.880;8.650;2023-03-04T00:32:22;100870.63;;;7.42;50.44
63347;BME280;49472;49.880;8.650;2023-03-04T00:34:47;100867.72;;;7.13;52.75
63347;BME280;49472;49.880;8.650;2023-03-04T00:37:13;100870.09;;;7.35;51.31
63347;BME280;49472;49.880;8.650;2023-03-04T00:39:38;100859.22;;;7.68;50.01
63347;BME280;49472;49.880;8.650;2023-03-04T00:42:04;100867.41;;;7.38;50.96
63347;BME280;49472;49.880;8.650;2023-03-04T00:44:29;100866.41;;;7.60;50.23
63347;BME280;49472;49.880;8.650;2023-03-04T00:46:54;100866.94;;;7.67;49.71
63347;BME280;49472;49.880;8.650;2023-03-04T00:49:20;100864.75;;;7.04;51.84
63347;BME280;49472;49.880;8.650;2023-03-04T00:51:45;100869.50;;;7.48;51.24
63347;BME280;49472;49.880;8.650;2023-03-04T00:54:10;100862.63;;;7.50;50.93
63347;BME280;49472;49.880;8.650;2023-03-04T00:56:35;100867.66;;;7.51;50.66
63347;BME280;49472;49.880;8.650;2023-03-04T00:59:01;100864.31;;;7.51;50.87
63347;BME280;49472;49.880;8.650;2023-03-04T01:01:26;100874.22;;;7.19;51.73
63347;BME280;49472;49.880;8.650;2023-03-04T01:03:51;100865.63;;;7.41;51.28
63347;BME280;49472;49.880;8.650;2023-03-04T01:06:17;100867.56;;;7.35;50.95
63347;BME280;49472;49.880;8.650;2023-03-04T01:08:42;100864.31;;;7.32;51.33
63347;BME280;49472;49.880;8.650;2023-03-04T01:11:07;100859.16;;;7.14;51.14
63347;BME280;49472;49.880;8.650;2023-03-04T01:13:33;100859.53;;;7.26;51.15
63347;BME280;49472;49.880;8.650;2023-03-04T01:15:59;100856.00;;;7.09;51.55
63347;BME280;49472;49.880;8.650;2023-03-04T01:18:24;100860.47;;;7.04;51.45
63347;BME280;49472;49.880;8.650;2023-03-04T01:20:49;100848.72;;;7.02;51.65
63347;BME280;49472;49.880;8.650;2023-03-04T01:23:15;100854.38;;;7.08;51.34
63347;BME280;49472;49.880;8.650;2023-03-04T01:25:40;100844.19;;;7.08;51.34
63347;BME280;49472;49.880;8.650;2023-03-04T01:28:05;100843.91;;;7.14;51.14
63347;BME280;49472;49.880;8.650;2023-03-04T01:30:31;100838.50;;;6.84;52.23
63347;BME280;49472;49.880;8.650;2023-03-04T01:32:56;100840.84;;;7.08;51.94
63347;BME280;49472;49.880;8.650;2023-03-04T01:35:21;100842.16;;;6.98;51.76
63347;BME280;49472;49.880;8.650;2023-03-04T01:37:47;100835.91;;;7.05;51.49
63347;BME280;49472;49.880;8.650;2023-03-04T01:40:12;100835.25;;;7.18;51.56
63347;BME280;49472;49.880;8.650;2023-03-04T01:42:38;100840.13;;;7.04;51.34
63347;BME280;49472;49.880;8.650;2023-03-04T01:45:05;100831.44;;;7.10;51.70
63347;BME280;49472;49.880;8.650;2023-03-04T01:47:32;100835.41;;;6.96;51.57
63347;BME280;49472;49.880;8.650;2023-03-04T01:50:00;100821.88;;;6.96;50.85
63347;BME280;49472;49.880;8.650;2023-03-04T01:52:27;100827.44;;;6.85;51.62
63347;BME280;49472;49.880;8.650;2023-03-04T01:54:52;100822.69;;;6.96;51.51
63347;BME280;49472;49.880;8.650;2023-03-04T01:57:22;100819.06;;;6.64;52.29
63347;BME280;49472;49.880;8.650;2023-03-04T02:00:14;100816.63;;;6.61;53.50
63347;BME280;49472;49.880;8.650;2023-03-04T02:02:42;100823.38;;;6.62;53.04
63347;BME280;49472;49.880;8.650;2023-03-04T02:05:07;100819.19;;;6.80;52.27
63347;BME280;49472;49.880;8.650;2023-03-04T02:07:32;100817.69;;;6.95;51.84
63347;BME280;49472;49.880;8.650;2023-03-04T02:09:58;100813.28;;;6.99;51.76
63347;BME280;49472;49.880;8.650;2023-03-04T02:12:23;100806.41;;;7.01;51.40
63347;BME280;49472;49.880;8.650;2023-03-04T02:14:48;100815.31;;;7.09;51.62
63347;BME280;49472;49.880;8.650;2023-03-04T02:17:14;100808.56;;;7.10;51.70
63347;BME280;49472;49.880;8.650;2023-03-04T02:22:13;100805.09;;;7.11;51.92
63347;BME280;49472;49.880;8.650;2023-03-04T02:24:45;100799.25;;;7.09;51.35
63347;BME280;49472;49.880;8.650;2023-03-04T02:27:11;100802.91;;;7.03;51.33
63347;BME280;49472;49.880;8.650;2023-03-04T02:29:36;100801.59;;;7.13;51.15
63347;BME280;49472;49.880;8.650;2023-03-04T02:32:02;100801.88;;;7.07;51.82
63347;BME280;49472;49.880;8.650;2023-03-04T02:34:31;100801.94;;;7.06;52.21
63347;BME280;49472;49.880;8.650;2023-03-04T02:36:57;100799.41;;;7.06;51.78
63347;BME280;49472;49.880;8.650;2023-03-04T02:39:32;100793.75;;;7.18;51.51
63347;BME280;49472;49.880;8.650;2023-03-04T02:41:59;100795.69;;;6.94;52.50
63347;BME280;49472;49.880;8.650;2023-03-04T02:44:33;100794.75;;;6.78;53.30
63347;BME280;49472;49.880;8.650;2023-03-04T02:46:59;100798.59;;;6.86;53.68
63347;BME280;49472;49.880;8.650;2023-03-04T02:49:28;100794.66;;;6.79;53.26
63347;BME280;49472;49.880;8.650;2023-03-04T02:54:25;100782.63;;;7.21;51.53
63347;BME280;49472;49.880;8.650;2023-03-04T02:56:52;100793.22;;;6.92;53.15
63347;BME280;49472;49.880;8.650;2023-03-04T02:59:19;100781.56;;;7.25;52.19
63347;BME280;49472;49.880;8.650;2023-03-04T03:01:45;100787.69;;;7.21;52.51
63347;BME280;49472;49.880;8.650;2023-03-04T03:04:10;100789.63;;;7.15;53.06
63347;BME280;49472;49.880;8.650;2023-03-04T03:06:35;100785.75;;;7.26;52.42
63347;BME280;49472;49.880;8.650;2023-03-04T03:09:01;100783.41;;;6.47;54.64
63347;BME280;49472;49.880;8.650;2023-03-04T03:11:27;100791.25;;;5.81;57.57
63347;BME280;49472;49.880;8.650;2023-03-04T03:13:52;100778.75;;;6.17;56.58
63347;BME280;49472;49.880;8.650;2023-03-04T03:16:17;100780.47;;;6.75;54.84
63347;BME280;49472;49.880;8.650;2023-03-04T03:18:43;100782.81;;;6.80;54.22
63347;BME280;49472;49.880;8.650;2023-03-04T03:21:08;100784.03;;;6.71;54.53
63347;BME280;49472;49.880;8.650;2023-03-04T03:23:33;100783.34;;;6.86;53.80
63347;BME280;49472;49.880;8.650;2023-03-04T03:25:59;100778.59;;;6.60;55.35
63347;BME280;49472;49.880;8.650;2023-03-04T03:28:25;100778.34;;;7.21;53.76
63347;BME280;49472;49.880;8.650;2023-03-04T03:30:50;100767.66;;;6.95;54.37
63347;BME280;49472;49.880;8.650;2023-03-04T03:33:15;100770.41;;;7.10;54.08
63347;BME280;49472;49.880;8.650;2023-03-04T03:35:41;100775.63;;;6.69;55.21
63347;BME280;49472;49.880;8.650;2023-03-04T03:38:06;100768.47;;;7.15;53.72
63347;BME280;49472;49.880;8.650;2023-03-04T03:40:31;100762.59;;;6.95;53.36
63347;BME280;49472;49.880;8.650;2023-03-04T03:42:57;100767.31;;;7.03;53.71
63347;BME280;49472;49.880;8.650;2023-03-04T03:45:22;100765.22;;;7.30;53.33
63347;BME280;49472;49.880;8.650;2023-03-04T03:47:47;100765.34;;;7.45;52.22
63347;BME280;49472;49.880;8.650;2023-03-04T03:50:12;100761.78;;;7.49;52.18
63347;BME280;49472;49.880;8.650;2023-03-04T03:52:38;100769.03;;;6.46;55.37
63347;BME280;49472;49.880;8.650;2023-03-04T03:55:03;100764.47;;;7.09;54.09
63347;BME280;49472;49.880;8.650;2023-03-04T03:57:29;100762.97;;;7.42;53.43
63347;BME280;49472;49.880;8.650;2023-03-04T03:59:54;100767.31;;;6.84;54.61
63347;BME280;49472;49.880;8.650;2023-03-04T04:02:20;100765.13;;;7.32;53.54
63347;BME280;49472;49.880;8.650;2023-03-04T04:04:46;100765.44;;;7.43;52.86
63347;BME280;49472;49.880;8.650;2023-03-04T04:07:11;100755.38;;;7.40;53.03
63347;BME280;49472;49.880;8.650;2023-03-04T04:09:36;100757.63;;;7.29;53.18
63347;BME280;49472;49.880;8.650;2023-03-04T04:12:04;100762.66;;;7.48;53.09
63347;BME280;49472;49.880;8.650;2023-03-04T04:14:30;100770.34;;;7.29;53.86
63347;BME280;49472;49.880;8.650;2023-03-04T04:16:55;100769.97;;;7.19;53.92
63347;BME280;49472;49.880;8.650;2023-03-04T04:19:20;100763.56;;;6.93;54.71
63347;BME280;49472;49.880;8.650;2023-03-04T04:21:46;100776.19;;;6.76;54.88
63347;BME280;49472;49.880;8.650;2023-03-04T04:24:11;100767.28;;;6.67;55.27
63347;BME280;49472;49.880;8.650;2023-03-04T04:26:37;100769.81;;;6.67;55.69
63347;BME280;49472;49.880;8.650;2023-03-04T04:29:02;100772.03;;;6.74;55.21
63347;BME280;49472;49.880;8.650;2023-03-04T04:31:28;100771.31;;;6.13;56.13
63347;BME280;49472;49.880;8.650;2023-03-04T04:33:53;100765.16;;;5.98;57.08
63347;BME280;49472;49.880;8.650;2023-03-04T04:36:18;100763.88;;;5.67;59.20
63347;BME280;49472;49.880;8.650;2023-03-04T04:38:44;100762.91;;;5.49;59.78
63347;BME280;49472;49.880;8.650;2023-03-04T04:41:18;100763.81;;;5.89;59.04
63347;BME280;49472;49.880;8.650;2023-03-04T04:43:46;100771.63;;;5.84;58.74
63347;BME280;49472;49.880;8.650;2023-03-04T04:46:11;100766.34;;;6.30;57.84
63347;BME280;49472;49.880;8.650;2023-03-04T04:48:36;100771.91;;;5.78;59.02
63347;BME280;49472;49.880;8.650;2023-03-04T04:51:02;100764.66;;;5.90;59.08
63347;BME280;49472;49.880;8.650;2023-03-04T04:53:27;100760.66;;;5.84;59.13
63347;BME280;49472;49.880;8.650;2023-03-04T04:55:52;100761.16;;;5.92;58.88
63347;BME280;49472;49.880;8.650;2023-03-04T04:58:18;100762.84;;;6.14;58.27
63347;BME280;49472;49.880;8.650;2023-03-04T05:00:43;100760.78;;;5.60;59.56
63347;BME280;49472;49.880;8.650;2023-03-04T05:03:08;100761.81;;;5.97;58.84
63347;BME280;49472;49.880;8.650;2023-03-04T05:05:33;100758.81;;;6.08;58.46
63347;BME280;49472;49.880;8.650;2023-03-04T05:07:59;100765.22;;;5.55;59.74
63347;BME280;49472;49.880;8.650;2023-03-04T05:10:24;100764.56;;;5.50;60.10
63347;BME280;49472;49.880;8.650;2023-03-04T05:12:49;100763.47;;;5.35;60.78
63347;BME280;49472;49.880;8.650;2023-03-04T05:15:15;100762.28;;;5.44;60.42
63347;BME280;49472;49.880;8.650;2023-03-04T05:17:40;100762.19;;;5.88;59.22
63347;BME280;49472;49.880;8.650;2023-03-04T05:20:07;100757.47;;;5.58;59.94
63347;BME280;49472;49.880;8.650;2023-03-04T05:22:32;100758.25;;;5.81;59.68
63347;BME280;49472;49.880;8.650;2023-03-04T05:24:58;100760.34;;;5.71;59.92
63347;BME280;49472;49.880;8.650;2023-03-04T05:27:23;100757.97;;;5.87;59.02
63347;BME280;49472;49.880;8.650;2023-03-04T05:29:48;100758.59;;;5.51;60.23
63347;BME280;49472;49.880;8.650;2023-03-04T05:32:14;100751.44;;;5.40;60.58
63347;BME280;49472;49.880;8.650;2023-03-04T05:34:39;100751.44;;;5.40;60.66
63347;BME280;49472;49.880;8.650;2023-03-04T05:37:04;100754.44;;;5.50;60.74
63347;BME280;49472;49.880;8.650;2023-03-04T05:39:30;100751.00;;;6.13;58.97
63347;BME280;49472;49.880;8.650;2023-03-04T05:41:55;100758.44;;;6.17;58.17
63347;BME280;49472;49.880;8.650;2023-03-04T05:44:20;100762.44;;;5.82;59.23
63347;BME280;49472;49.880;8.650;2023-03-04T05:46:45;100768.16;;;5.24;60.84
63347;BME280;49472;49.880;8.650;2023-03-04T05:49:11;100759.78;;;5.22;61.76
63347;BME280;49472;49.880;8.650;2023-03-04T05:51:36;100763.84;;;5.47;60.74
63347;BME280;49472;49.880;8.650;2023-03-04T05:54:01;100761.47;;;5.21;61.83
63347;BME280;49472;49.880;8.650;2023-03-04T05:56:27;100760.59;;;5.00;61.95
63347;BME280;49472;49.880;8.650;2023-03-04T05:58:58;100765.00;;;5.17;61.42
63347;BME280;49472;49.880;8.650;2023-03-04T06:01:24;100761.44;;;5.43;60.84
63347;BME280;49472;49.880;8.650;2023-03-04T06:03:49;100761.84;;;5.12;61.23
63347;BME280;49472;49.880;8.650;2023-03-04T06:06:15;100762.41;;;5.19;61.84
63347;BME280;49472;49.880;8.650;2023-03-04T06:08:40;100767.38;;;5.00;62.34
63347;BME280;49472;49.880;8.650;2023-03-04T06:11:06;100764.72;;;5.47;60.96
63347;BME280;49472;49.880;8.650;2023-03-04T06:13:32;100771.72;;;5.40;60.95
63347;BME280;49472;49.880;8.650;2023-03-04T06:15:58;100768.84;;;6.32;58.67
63347;BME280;49472;49.880;8.650;2023-03-04T06:18:25;100771.38;;;5.50;60.75
63347;BME280;49472;49.880;8.650;2023-03-04T06:20:56;100773.03;;;5.92;59.57
63347;BME280;49472;49.880;8.650;2023-03-04T06:23:21;100781.75;;;5.64;60.17
63347;BME280;49472;49.880;8.650;2023-03-04T06:25:54;100782.50;;;5.23;61.63
63347;BME280;49472;49.880;8.650;2023-03-04T06:28:20;100788.81;;;4.91;62.98
63347;BME280;49472;49.880;8.650;2023-03-04T06:30:45;100779.47;;;5.37;61.24
63347;BME280;49472;49.880;8.650;2023-03-04T06:33:10;100788.19;;;5.73;60.84
63347;BME280;49472;49.880;8.650;2023-03-04T06:35:35;100790.38;;;6.02;59.35
63347;BME280;49472;49.880;8.650;2023-03-04T06:38:01;100790.16;;;6.67;57.16
63347;BME280;49472;49.880;8.650;2023-03-04T06:40:26;100800.28;;;6.48;57.57
63347;BME280;49472;49.880;8.650;2023-03-04T06:42:51;100798.63;;;7.04;55.63
63347;BME280;49472;49.880;8.650;2023-03-04T06:45:17;100802.28;;;6.79;56.93
63347;BME280;49472;49.880;8.650;2023-03-04T06:47:42;100806.31;;;6.45;57.69
63347;BME280;49472;49.880;8.650;2023-03-04T06:50:10;100810.44;;;6.08;59.36
63347;BME280;49472;49.880;8.650;2023-03-04T06:52:36;100814.72;;;6.27;59.12
63347;BME280;49472;49.880;8.650;2023-03-04T06:55:02;100804.38;;;6.32;59.09
63347;BME280;49472;49.880;8.650;2023-03-04T06:57:28;100816.00;;;6.17;59.59
63347;BME280;49472;49.880;8.650;2023-03-04T06:59:53;100810.59;;;5.83;60.05
63347;BME280;49472;49.880;8.650;2023-03-04T07:02:18;100819.81;;;6.06;59.50
63347;BME280;49472;49.880;8.650;2023-03-04T07:04:44;100811.47;;;5.82;59.71
63347;BME280;49472;49.880;8.650;2023-03-04T07:07:10;100806.97;;;5.89;60.05
63347;BME280;49472;49.880;8.650;2023-03-04T07:09:36;100817.41;;;6.24;59.40
63347;BME280;49472;49.880;8.650;2023-03-04T07:12:02;100814.38;;;6.16;58.75
63347;BME280;49472;49.880;8.650;2023-03-04T07:14:27;100812.13;;;6.08;58.83
63347;BME280;49472;49.880;8.650;2023-03-04T07:16:53;100821.03;;;6.77;57.33
63347;BME280;49472;49.880;8.650;2023-03-04T07:19:18;100817.91;;;6.12;58.55
63347;BME280;49472;49.880;8.650;2023-03-04T07:21:43;100822.72;;;5.97;58.60
63347;BME280;49472;49.880;8.650;2023-03-04T07:24:09;100820.78;;;5.82;59.48
63347;BME280;49472;49.880;8.650;2023-03-04T07:26:34;100826.13;;;5.76;60.38
63347;BME280;49472;49.880;8.650;2023-03-04T07:29:02;100825.94;;;5.80;60.17
63347;BME280;49472;49.880;8.650;2023-03-04T07:31:30;100823.69;;;5.95;60.32
63347;BME280;49472;49.880;8.650;2023-03-04T07:33:58;100829.06;;;6.07;59.65
63347;BME280;49472;49.880;8.650;2023-03-04T07:36:24;100831.72;;;5.84;59.90
63347;BME280;49472;49.880;8.650;2023-03-04T07:38:50;100829.13;;;5.85;59.96
63347;BME280;49472;49.880;8.650;2023-03-04T07:41:17;100822.50;;;5.81;59.95
63347;BME280;49472;49.880;8.650;2023-03-04T07:43:43;100829.00;;;5.88;59.75
63347;BME280;49472;49.880;8.650;2023-03-04T07:46:09;100834.16;;;6.28;59.07
63347;BME280;49472;49.880;8.650;2023-03-04T07:48:35;100830.94;;;5.82;59.84
63347;BME280;49472;49.880;8.650;2023-03-04T07:51:09;100835.56;;;5.94;59.42
63347;BME280;49472;49.880;8.650;2023-03-04T07:53:36;100836.69;;;6.07;59.24
63347;BME280;49472;49.880;8.650;2023-03-04T07:56:02;100842.84;;;6.43;58.85
63347;BME280;49472;49.880;8.650;2023-03-04T07:58:28;100842.81;;;6.03;59.05
63347;BME280;49472;49.880;8.650;2023-03-04T08:00:53;100844.50;;;6.44;58.35
63347;BME280;49472;49.880;8.650;2023-03-04T08:03:18;100844.19;;;6.51;58.19
63347;BME280;49472;49.880;8.650;2023-03-04T08:05:44;100841.75;;;6.48;58.23
63347;BME280;49472;49.880;8.650;2023-03-04T08:08:09;100843.44;;;6.08;58.50
63347;BME280;49472;49.880;8.650;2023-03-04T08:10:34;100841.72;;;6.09;59.40
63347;BME280;49472;49.880;8.650;2023-03-04T08:13:00;100843.34;;;6.10;59.47
63347;BME280;49472;49.880;8.650;2023-03-04T08:15:26;100845.44;;;6.00;58.87
63347;BME280;49472;49.880;8.650;2023-03-04T08:17:52;100847.38;;;6.16;59.21
63347;BME280;49472;49.880;8.650;2023-03-04T08:20:17;100848.97;;;6.39;58.19
63347;BME280;49472;49.880;8.650;2023-03-04T08:22:43;100843.97;;;6.36;58.49
63347;BME280;49472;49.880;8.650;2023-03-04T08:25:08;100844.75;;;6.77;57.42
63347;BME280;49472;49.880;8.650;2023-03-04T08:27:34;100849.91;;;7.50;55.86
63347;BME280;49472;49.880;8.650;2023-03-04T08:30:01;100853.38;;;6.54;57.78
63347;BME280;49472;49.880;8.650;2023-03-04T08:32:26;100855.88;;;6.93;57.75
63347;BME280;49472;49.880;8.650;2023-03-04T08:34:51;100857.38;;;6.60;57.92
63347;BME280;49472;49.880;8.650;2023-03-04T08:37:17;100856.63;;;6.77;57.46
63347;BME280;49472;49.880;8.650;2023-03-04T08:39:42;100859.59;;;7.05;57.16
63347;BME280;49472;49.880;8.650;2023-03-04T08:42:07;100856.03;;;6.90;57.35
63347;BME280;49472;49.880;8.650;2023-03-04T08:44:32;100859.72;;;6.83;57.89
63347;BME280;49472;49.880;8.650;2023-03-04T08:46:58;100865.91;;;6.96;57.22
63347;BME280;49472;49.880;8.650;2023-03-04T08:49:23;100864.03;;;6.81;57.90
63347;BME280;49472;49.880;8.650;2023-03-04T08:51:48;100866.97;;;6.53;57.53
63347;BME280;49472;49.880;8.650;2023-03-04T08:54:14;100869.38;;;6.36;58.13
63347;BME280;49472;49.880;8.650;2023-03-04T08:56:40;100871.91;;;6.56;58.20
63347;BME280;49472;49.880;8.650;2023-03-04T08:59:05;100862.28;;;6.44;58.27
63347;BME280;49472;49.880;8.650;2023-03-04T09:01:30;100863.69;;;6.70;57.84
63347;BME280;49472;49.880;8.650;2023-03-04T09:03:56;100866.59;;;6.81;56.38
63347;BME280;49472;49.880;8.650;2023-03-04T09:06:21;100862.84;;;6.30;58.12
63347;BME280;49472;49.880;8.650;2023-03-04T09:08:46;100866.16;;;6.32;58.40
63347;BME280;49472;49.880;8.650;2023-03-04T09:11:12;100868.19;;;6.44;57.67
63347;BME280;49472;49.880;8.650;2023-03-04T09:13:38;100861.63;;;6.59;57.58
63347;BME280;49472;49.880;8.650;2023-03-04T09:16:09;100862.69;;;6.53;58.30
63347;BME280;49472;49.880;8.650;2023-03-04T09:18:35;100864.75;;;6.45;58.28
63347;BME280;49472;49.880;8.650;2023-03-04T09:21:00;100859.56;;;6.67;57.99
63347;BME280;49472;49.880;8.650;2023-03-04T09:23:25;100865.09;;;6.77;57.63
63347;BME280;49472;49.880;8.650;2023-03-04T09:25:50;100855.47;;;6.44;58.62
63347;BME280;49472;49.880;8.650;2023-03-04T09:28:17;100855.81;;;6.95;57.35
63347;BME280;49472;49.880;8.650;2023-03-04T09:30:42;100854.16;;;6.94;57.98
63347;BME280;49472;49.880;8.650;2023-03-04T09:33:08;100855.88;;;6.93;57.19
63347;BME280;49472;49.880;8.650;2023-03-04T09:35:34;100856.34;;;7.02;57.25
63347;BME280;49472;49.880;8.650;2023-03-04T09:37:59;100843.75;;;7.36;56.73
63347;BME280;49472;49.880;8.650;2023-03-04T09:40:47;100847.13;;;7.91;55.89
63347;BME280;49472;49.880;8.650;2023-03-04T09:43:22;100857.63;;;8.02;54.15
63347;BME280;49472;49.880;8.650;2023-03-04T09:45:55;100847.09;;;8.25;53.01
63347;BME280;49472;49.880;8.650;2023-03-04T09:48:24;100847.84;;;8.27;53.32
63347;BME280;49472;49.880;8.650;2023-03-04T09:51:20;100843.63;;;8.26;52.54
63347;BME280;49472;49.880;8.650;2023-03-04T09:54:00;100841.81;;;8.79;52.55
63347;BME280;49472;49.880;8.650;2023-03-04T09:56:33;100849.06;;;8.87;51.52
63347;BME280;49472;49.880;8.650;2023-03-04T09:59:21;100846.78;;;8.32;51.90
63347;BME280;49472;49.880;8.650;2023-03-04T10:01:55;100839.81;;;8.53;51.47
63347;BME280;49472;49.880;8.650;2023-03-04T10:04:36;100839.22;;;8.30;51.48
63347;BME280;49472;49.880;8.650;2023-03-04T10:07:07;100843.19;;;8.53;51.10
63347;BME280;49472;49.880;8.650;2023-03-04T10:09:56;100841.88;;;8.62;51.02
63347;BME280;49472;49.880;8.650;2023-03-04T10:12:27;100836.28;;;8.55;50.81
63347;BME280;49472;49.880;8.650;2023-03-04T10:15:04;100843.81;;;8.23;51.91
63347;BME280;49472;49.880;8.650;2023-03-04T10:17:39;100830.13;;;8.59;51.19
63347;BME280;49472;49.880;8.650;2023-03-04T10:22:35;100838.97;;;8.52;50.83
63347;BME280;49472;49.880;8.650;2023-03-04T10:30:31;100837.31;;;9.00;50.11
63347;BME280;49472;49.880;8.650;2023-03-04T10:33:01;100840.03;;;9.13;50.19
63347;BME280;49472;49.880;8.650;2023-03-04T10:35:33;100831.41;;;8.84;50.42
63347;BME280;49472;49.880;8.650;2023-03-04T10:38:02;100840.78;;;8.99;50.87
63347;BME280;49472;49.880;8.650;2023-03-04T10:40:28;100836.88;;;8.60;51.20
63347;BME280;49472;49.880;8.650;2023-03-04T10:43:00;100831.72;;;8.94;50.96
63347;BME280;49472;49.880;8.650;2023-03-04T10:45:31;100831.97;;;9.21;50.91
63347;BME280;49472;49.880;8.650;2023-03-04T10:47:59;100828.84;;;9.00;50.54
63347;BME280;49472;49.880;8.650;2023-03-04T10:50:27;100826.13;;;8.87;51.35
63347;BME280;49472;49.880;8.650;2023-03-04T10:52:54;100829.09;;;9.11;51.47
63347;BME280;49472;49.880;8.650;2023-03-04T10:55:28;100830.59;;;8.50;52.77
63347;BME280;49472;49.880;8.650;2023-03-04T10:58:01;100823.16;;;9.26;50.66
63347;BME280;49472;49.880;8.650;2023-03-04T11:00:30;100819.88;;;9.24;50.44
63347;BME280;49472;49.880;8.650;2023-03-04T11:03:32;100818.69;;;8.66;52.56
63347;BME280;49472;49.880;8.650;2023-03-04T11:06:24;100811.19;;;9.43;50.19
63347;BME280;49472;49.880;8.650;2023-03-04T11:08:55;100809.09;;;9.65;49.76
63347;BME280;49472;49.880;8.650;2023-03-04T11:11:30;100808.16;;;9.36;50.09
63347;BME280;49472;49.880;8.650;2023-03-04T11:14:01;100807.44;;;9.02;51.22
63347;BME280;49472;49.880;8.650;2023-03-04T11:16:31;100815.50;;;9.26;50.85
63347;BME280;49472;49.880;8.650;2023-03-04T11:19:08;100800.53;;;9.04;50.87
63347;BME280;49472;49.880;8.650;2023-03-04T11:21:38;100798.44;;;9.43;50.59
63347;BME280;49472;49.880;8.650;2023-03-04T11:24:10;100795.66;;;9.31;50.91
63347;BME280;49472;49.880;8.650;2023-03-04T11:26:44;100799.06;;;8.84;50.63
63347;BME280;49472;49.880;8.650;2023-03-04T11:29:23;100791.81;;;8.61;52.06
63347;BME280;49472;49.880;8.650;2023-03-04T11:34:36;100785.44;;;8.85;51.90
63347;BME280;49472;49.880;8.650;2023-03-04T11:37:24;100795.22;;;8.44;51.97
63347;BME280;49472;49.880;8.650;2023-03-04T11:39:56;100791.69;;;8.46;53.20
63347;BME280;49472;49.880;8.650;2023-03-04T11:45:04;100782.72;;;8.39;52.83
63347;BME280;49472;49.880;8.650;2023-03-04T11:53:00;100772.25;;;9.09;50.60
63347;BME280;49472;49.880;8.650;2023-03-04T11:55:31;100774.84;;;9.23;50.77
63347;BME280;49472;49.880;8.650;2023-03-04T12:00:35;100766.81;;;8.99;51.21
63347;BME280;49472;49.880;8.650;2023-03-04T12:08:53;100764.84;;;9.04;52.18
63347;BME280;49472;49.880;8.650;2023-03-04T12:11:33;100761.16;;;9.40;50.90
63347;BME280;49472;49.880;8.650;2023-03-04T12:14:15;100760.66;;;9.64;50.02
63347;BME280;49472;49.880;8.650;2023-03-04T12:17:00;100764.53;;;8.63;52.19
63347;BME280;49472;49.880;8.650;2023-03-04T12:19:43;100757.44;;;8.84;52.51
63347;BME280;49472;49.880;8.650;2023-03-04T12:22:36;100755.56;;;9.03;51.87
63347;BME280;49472;49.880;8.650;2023-03-04T12:27:51;100748.88;;;9.47;51.13
63347;BME280;49472;49.880;8.650;2023-03-04T12:30:41;100750.06;;;9.55;50.63
63347;BME280;49472;49.880;8.650;2023-03-04T12:38:29;100742.41;;;8.63;52.75
63347;BME280;49472;49.880;8.650;2023-03-04T12:44:05;100739.59;;;8.84;52.17
63347;BME280;49472;49.880;8.650;2023-03-04T12:46:40;100727.56;;;9.02;52.12
63347;BME280;49472;49.880;8.650;2023-03-04T12:49:28;100727.84;;;9.27;51.61
63347;BME280;49472;49.880;8.650;2023-03-04T12:55:07;100730.25;;;8.35;53.41
63347;BME280;49472;49.880;8.650;2023-03-04T12:57:35;100728.03;;;8.29;53.75
63347;BME280;49472;49.880;8.650;2023-03-04T13:00:16;100723.47;;;8.67;52.85
63347;BME280;49472;49.880;8.650;2023-03-04T13:03:05;100718.88;;;8.74;52.95
63347;BME280;49472;49.880;8.650;2023-03-04T13:05:44;100727.50;;;8.56;53.31
63347;BME280;49472;49.880;8.650;2023-03-04T13:08:43;100718.69;;;8.77;52.33
63347;BME280;49472;49.880;8.650;2023-03-04T13:16:38;100711.28;;;9.04;52.17
63347;BME280;49472;49.880;8.650;2023-03-04T13:22:34;100698.72;;;8.85;52.67
63347;BME280;49472;49.880;8.650;2023-03-04T13:25:29;100698.50;;;9.04;52.18
63347;BME280;49472;49.880;8.650;2023-03-04T13:35:46;100690.75;;;8.76;52.62
63347;BME280;49472;49.880;8.650;2023-03-04T13:44:28;100674.88;;;9.17;51.29
63347;BME280;49472;49.880;8.650;2023-03-04T13:46:50;100654.44;;;9.47;51.02
63347;BME280;49472;49.880;8.650;2023-03-04T13:49:21;100660.34;;;9.47;51.86
63347;BME280;49472;49.880;8.650;2023-03-04T13:51:49;100652.50;;;8.76;52.72
63347;BME280;49472;49.880;8.650;2023-03-04T13:54:31;100669.09;;;9.13;52.03
63347;BME280;49472;49.880;8.650;2023-03-04T13:59:38;100660.81;;;9.09;51.94
63347;BME280;49472;49.880;8.650;2023-03-04T14:02:24;100669.63;;;9.48;51.46
63347;BME280;49472;49.880;8.650;2023-03-04T14:07:35;100643.97;;;9.07;52.65
63347;BME280;49472;49.880;8.650;2023-03-04T14:12:39;100647.69;;;9.16;52.09
63347;BME280;49472;49.880;8.650;2023-03-04T14:15:18;100642.28;;;8.91;52.38
63347;BME280;49472;49.880;8.650;2023-03-04T14:17:57;100648.53;;;8.86;52.65
63347;BME280;49472;49.880;8.650;2023-03-04T14:20:35;100644.19;;;8.72;53.33
63347;BME280;49472;49.880;8.650;2023-03-04T14:23:04;100644.69;;;8.79;53.02